If you wish to contribute or participate in the discussions about articles you are invited to join SKYbrary as a registered user

 Actions

Ladd AAF Airfield

From SKYbrary Wiki

PAFB
Airport
ICAO: PAFB – IATA: FBK
Summary
Name Ladd AAF Airfield
Region North America
Territory Alaska US.gif
Location , Alaska
Serving Fort Wainwright
Elevation 138.379 m
454 ft
454 ft138.379 m
Type medium airport
Coordinates 64° 50' 15.00" N, 147° 36' 52.00" W
Runways
Designator Length Width Surface ROPS
7/25 2614 m8,576.115 ft
46 m150.919 ft
ASPH-CONC /


METAR
Observation PAFB 170058Z AUTO 30009KT 9SM CLR 12/00 A2964 RMK AO2 SLP040 T01160002
Station Fort Wainwright AAF
Date/Time 17 September 2019 00:58:00
Wind direction 300°
Wind speed 09 kts
Lowest cloud amount n/a
Temperature 11.6°C
Dew point 0.2°C
Humidity 45%
QNH hPa
Weather condition n/a